createdAt,value
2022-08-14T00:06:28.754Z,14.05
2022-08-14T00:09:40.020Z,14.40
2022-08-14T00:13:00.547Z,14.07
2022-08-14T00:16:41.107Z,13.98
2022-08-14T00:19:36.988Z,15.85
2022-08-14T00:22:57.581Z,14.80
2022-08-14T00:26:21.693Z,14.53
2022-08-14T00:29:30.285Z,14.93
2022-08-14T00:32:52.810Z,13.57
2022-08-14T00:36:39.341Z,13.78
2022-08-14T00:39:25.694Z,13.60
2022-08-14T00:42:55.767Z,13.88
2022-08-14T00:46:00.415Z,14.13
2022-08-14T00:49:17.090Z,14.40
2022-08-14T00:52:35.803Z,13.78
2022-08-14T00:55:56.083Z,13.90
2022-08-14T00:59:12.775Z,15.30
2022-08-14T01:06:30.054Z,15.58
2022-08-14T01:09:46.316Z,15.00
2022-08-14T01:13:03.376Z,14.88
2022-08-14T01:16:25.500Z,15.30
2022-08-14T01:19:55.260Z,13.85
2022-08-14T01:23:16.446Z,14.63
2022-08-14T01:26:35.744Z,13.83
2022-08-14T01:30:00.963Z,13.48
2022-08-14T01:33:09.682Z,14.93
2022-08-14T01:36:27.346Z,13.90
2022-08-14T01:39:45.133Z,15.35
2022-08-14T01:43:02.725Z,14.08
2022-08-14T01:46:24.542Z,16.38
2022-08-14T01:49:46.040Z,13.60
2022-08-14T01:52:58.473Z,13.45
2022-08-14T01:59:39.192Z,15.25
2022-08-14T02:02:57.686Z,14.80
2022-08-14T02:06:33.113Z,14.20
2022-08-14T02:09:35.778Z,15.38
2022-08-14T02:12:57.409Z,14.60
2022-08-14T02:16:21.864Z,14.00
2022-08-14T02:22:53.656Z,15.15
2022-08-14T02:26:29.071Z,14.98
2022-08-14T02:29:56.081Z,15.58
2022-08-14T02:33:01.596Z,16.25
2022-08-14T02:37:04.886Z,16.28
2022-08-14T02:39:40.331Z,16.68
2022-08-14T02:42:57.619Z,16.38
2022-08-14T02:46:27.006Z,17.00
2022-08-14T02:52:57.082Z,16.23
2022-08-14T02:56:30.112Z,16.75
2022-08-14T02:59:36.149Z,18.20
2022-08-14T03:07:59.057Z,16.93
2022-08-14T03:11:17.665Z,16.45
2022-08-14T03:14:35.647Z,16.98
2022-08-14T03:17:57.198Z,15.68
2022-08-14T03:21:17.054Z,16.90
2022-08-14T03:24:33.254Z,17.80
2022-08-14T03:27:58.380Z,19.10
2022-08-14T03:31:13.431Z,17.80
2022-08-14T03:34:52.656Z,18.03
2022-08-14T03:39:10.701Z,17.18
2022-08-14T03:41:07.308Z,18.45
2022-08-14T03:45:18.632Z,18.03
2022-08-14T03:47:55.889Z,18.17
2022-08-14T03:54:20.526Z,17.88
2022-08-14T03:57:37.164Z,19.38
2022-08-14T04:00:54.040Z,21.38
2022-08-14T04:04:10.627Z,19.03
2022-08-14T04:07:32.751Z,19.43
2022-08-14T04:10:47.818Z,20.13
2022-08-14T04:14:06.262Z,19.90
2022-08-14T04:17:27.077Z,18.93
2022-08-14T04:20:54.467Z,19.63
2022-08-14T04:24:06.913Z,19.28
2022-08-14T04:27:24.115Z,19.30
2022-08-14T04:30:42.670Z,18.28
2022-08-14T04:33:59.338Z,20.23
2022-08-14T04:37:30.232Z,19.93
2022-08-14T04:41:00.801Z,20.10
2022-08-14T04:44:26.496Z,19.00
2022-08-14T04:47:53.769Z,20.40
2022-08-14T04:54:22.623Z,20.43
2022-08-14T04:57:41.404Z,19.78
2022-08-14T05:00:59.902Z,20.00
2022-08-14T05:04:20.012Z,19.33
2022-08-14T05:07:54.271Z,20.43
2022-08-14T05:10:57.449Z,20.07
2022-08-14T05:17:43.953Z,20.03
2022-08-14T05:21:55.432Z,20.23
2022-08-14T05:24:16.837Z,18.98
2022-08-14T05:30:42.864Z,18.93
2022-08-14T05:34:00.849Z,17.55
2022-08-14T05:37:17.302Z,18.80
2022-08-14T05:40:35.611Z,17.70
2022-08-14T05:43:53.129Z,17.45
2022-08-14T05:47:09.594Z,17.85
2022-08-14T05:53:42.932Z,16.23
2022-08-14T05:56:59.151Z,16.28
2022-08-14T06:00:28.403Z,14.75
2022-08-14T06:06:54.751Z,14.73
2022-08-14T06:10:15.609Z,14.95
2022-08-14T06:13:41.087Z,16.03
2022-08-14T06:16:53.422Z,13.88
2022-08-14T06:20:10.472Z,11.88
2022-08-14T06:23:27.370Z,13.28
2022-08-14T06:26:43.490Z,11.40
2022-08-14T06:30:01.542Z,11.03
2022-08-14T06:38:16.735Z,10.45
2022-08-14T06:41:56.733Z,11.20
2022-08-14T06:44:49.185Z,11.50
2022-08-14T06:48:12.670Z,10.48
2022-08-14T06:54:41.377Z,9.85
2022-08-14T06:57:59.121Z,9.20
2022-08-14T07:01:29.823Z,9.35
2022-08-14T07:08:03.165Z,7.75
2022-08-14T07:11:20.495Z,7.10
2022-08-14T07:14:36.772Z,7.40
2022-08-14T07:17:58.670Z,8.28
2022-08-14T07:21:17.571Z,7.23
2022-08-14T07:24:33.788Z,6.93
2022-08-14T07:27:54.837Z,7.13
2022-08-14T07:31:16.533Z,7.18
2022-08-14T07:37:48.146Z,7.00
2022-08-14T07:41:14.512Z,6.60
2022-08-14T07:44:32.902Z,6.50
2022-08-14T07:47:50.893Z,9.53
2022-08-14T07:51:10.736Z,9.35
2022-08-14T07:54:30.263Z,11.78
2022-08-14T07:57:45.836Z,11.63
2022-08-14T08:01:05.629Z,10.83
2022-08-14T08:07:40.425Z,10.55
2022-08-14T08:11:02.923Z,10.23
2022-08-14T08:14:18.952Z,10.70
2022-08-14T08:20:54.960Z,10.65
2022-08-14T08:24:18.430Z,10.75
2022-08-14T08:30:49.622Z,9.50
2022-08-14T08:37:23.169Z,13.03
2022-08-14T08:40:44.417Z,13.63
2022-08-14T08:44:02.605Z,9.60
2022-08-14T08:47:20.608Z,9.93
2022-08-14T08:50:49.398Z,8.75
2022-08-14T08:54:18.628Z,9.48
2022-08-14T08:57:30.219Z,9.40
2022-08-14T09:00:54.456Z,10.48
2022-08-14T09:07:26.247Z,9.75
2022-08-14T09:10:44.785Z,11.00
2022-08-14T09:14:03.632Z,10.18
2022-08-14T09:17:26.125Z,10.63
2022-08-14T09:24:29.165Z,9.78
2022-08-14T09:27:22.292Z,8.55
2022-08-14T09:30:34.070Z,8.93
2022-08-14T09:39:25.475Z,8.20
2022-08-14T09:43:01.769Z,7.28
2022-08-14T09:46:21.209Z,6.13
2022-08-14T09:53:02.057Z,7.00
2022-08-14T09:56:24.221Z,6.68
2022-08-14T09:59:51.027Z,5.55
2022-08-14T10:03:08.104Z,5.20
2022-08-14T10:06:38.463Z,6.13
2022-08-14T10:10:01.872Z,6.33
2022-08-14T10:13:28.266Z,5.08
2022-08-14T10:16:53.429Z,4.03
2022-08-14T10:20:40.572Z,4.38
2022-08-14T10:23:57.299Z,3.88
2022-08-14T10:27:24.016Z,3.53
2022-08-14T10:30:42.857Z,3.65
2022-08-14T10:39:17.073Z,3.85
2022-08-14T10:42:43.784Z,3.68
2022-08-14T10:47:37.103Z,3.63
2022-08-14T10:52:47.319Z,3.03
2022-08-14T10:56:21.698Z,3.23
2022-08-14T10:59:37.318Z,3.33
2022-08-14T11:02:55.484Z,2.83
2022-08-14T11:06:24.721Z,2.80
2022-08-14T11:09:42.143Z,2.90
2022-08-14T11:13:04.445Z,4.05
2022-08-14T11:16:22.342Z,2.93
2022-08-14T11:23:03.440Z,3.28
2022-08-14T11:26:19.932Z,2.98
2022-08-14T11:29:37.726Z,2.85
2022-08-14T11:32:57.967Z,3.38
2022-08-14T11:39:34.458Z,4.55
2022-08-14T11:42:59.618Z,3.68
2022-08-14T11:46:17.727Z,4.10
2022-08-14T11:50:36.286Z,3.85
2022-08-14T11:53:56.032Z,3.90
2022-08-14T11:57:14.464Z,3.85
2022-08-14T12:00:35.960Z,4.60
2022-08-14T12:03:57.321Z,5.40
2022-08-14T12:07:18.333Z,4.45
2022-08-14T12:10:41.033Z,4.75
2022-08-14T12:13:55.860Z,4.15
2022-08-14T12:17:15.909Z,3.95
2022-08-14T12:23:52.106Z,3.40
2022-08-14T12:27:16.883Z,5.10
2022-08-14T12:30:44.055Z,3.68
2022-08-14T12:34:11.110Z,2.90
2022-08-14T12:37:37.719Z,3.10
2022-08-14T12:41:01.199Z,2.98
2022-08-14T12:44:22.483Z,2.80
2022-08-14T12:47:40.374Z,3.73
2022-08-14T12:54:28.320Z,4.43
2022-08-14T12:57:53.241Z,5.15
2022-08-14T13:01:16.820Z,6.10
2022-08-14T13:04:30.686Z,8.08
2022-08-14T13:07:50.049Z,6.70
2022-08-14T13:11:10.751Z,26.73
2022-08-14T13:14:31.831Z,9.25
2022-08-14T13:17:54.827Z,6.90
2022-08-14T13:24:33.467Z,8.23
2022-08-14T13:27:54.607Z,7.18
2022-08-14T13:31:11.850Z,7.50
2022-08-14T13:34:31.663Z,8.45
2022-08-14T13:37:52.319Z,7.70
2022-08-14T13:41:10.550Z,14.25
2022-08-14T13:44:27.820Z,9.27
2022-08-14T13:47:46.672Z,7.53
2022-08-14T13:51:07.855Z,6.70
2022-08-14T13:54:26.965Z,7.08
2022-08-14T13:58:03.518Z,7.08
2022-08-14T14:01:08.420Z,7.55
2022-08-14T14:04:26.819Z,7.28
2022-08-14T14:07:47.219Z,6.93
2022-08-14T14:11:06.112Z,7.10
2022-08-14T14:14:44.935Z,7.03
2022-08-14T14:17:44.044Z,6.93
2022-08-14T14:24:17.300Z,6.85
2022-08-14T14:27:43.194Z,8.03
2022-08-14T14:31:01.361Z,8.08
2022-08-14T14:34:29.703Z,8.45
2022-08-14T14:37:38.254Z,8.05
2022-08-14T14:41:01.306Z,7.80
2022-08-14T14:44:18.858Z,7.73
2022-08-14T14:47:36.480Z,7.93
2022-08-14T14:54:10.258Z,8.83
2022-08-14T14:57:35.378Z,9.45
2022-08-14T15:00:49.335Z,9.18
2022-08-14T15:04:07.933Z,8.95
2022-08-14T15:07:25.395Z,9.18
2022-08-14T15:10:43.551Z,8.83
2022-08-14T15:14:54.859Z,19.05
2022-08-14T15:17:28.393Z,11.05
2022-08-14T15:20:43.878Z,9.30
2022-08-14T15:24:02.248Z,8.50
2022-08-14T15:27:26.139Z,9.05
2022-08-14T15:30:40.470Z,9.63
2022-08-14T15:34:43.056Z,9.70
2022-08-14T15:37:32.803Z,9.68
2022-08-14T15:40:51.447Z,10.88
2022-08-14T15:44:08.377Z,11.90
2022-08-14T15:47:28.050Z,11.88
2022-08-14T15:55:59.923Z,11.95
2022-08-14T15:59:18.575Z,10.30
2022-08-14T16:02:36.791Z,9.60
2022-08-14T16:12:41.244Z,9.78
2022-08-14T16:15:53.543Z,10.53
2022-08-14T16:19:09.747Z,9.70
2022-08-14T16:22:59.241Z,10.33
2022-08-14T16:25:47.510Z,11.38
2022-08-14T16:29:10.119Z,10.68
2022-08-14T16:32:32.511Z,9.75
2022-08-14T16:40:34.539Z,10.20
2022-08-14T16:43:59.612Z,9.73
2022-08-14T16:47:22.457Z,10.03
2022-08-14T16:50:44.553Z,10.55
2022-08-14T16:57:28.576Z,10.98
2022-08-14T17:00:48.614Z,11.00
2022-08-14T17:04:24.652Z,11.25
2022-08-14T17:07:29.075Z,12.48
2022-08-14T17:11:12.471Z,12.98
2022-08-14T17:14:33.136Z,14.08
2022-08-14T17:17:59.710Z,15.38
2022-08-14T17:24:57.702Z,15.55
2022-08-14T17:27:50.514Z,13.17
2022-08-14T17:31:10.316Z,13.33
2022-08-14T17:34:30.243Z,37.13
2022-08-14T17:37:55.962Z,15.18
2022-08-14T17:41:33.014Z,17.98
2022-08-14T17:44:46.589Z,14.78
2022-08-14T17:48:04.161Z,15.18
2022-08-14T17:51:24.071Z,13.68
2022-08-14T17:54:44.401Z,13.80
2022-08-14T17:58:00.315Z,12.20
2022-08-14T18:01:23.494Z,11.05
2022-08-14T18:04:38.355Z,14.33
2022-08-14T18:08:31.448Z,11.20
2022-08-14T18:11:18.156Z,11.90
2022-08-14T18:14:48.337Z,15.03
2022-08-14T18:17:57.237Z,14.13
2022-08-14T18:21:39.753Z,14.13
2022-08-14T18:24:34.423Z,14.40
2022-08-14T18:27:57.188Z,13.98
2022-08-14T18:31:45.401Z,14.73
2022-08-14T18:35:11.408Z,15.03
2022-08-14T18:38:46.446Z,13.83
2022-08-14T18:41:52.489Z,14.60
2022-08-14T18:45:26.381Z,15.10
2022-08-14T18:48:50.553Z,13.98
2022-08-14T18:55:59.855Z,30.58
2022-08-14T18:59:43.056Z,16.73
2022-08-14T19:02:59.530Z,14.90
2022-08-14T19:11:11.164Z,16.78
2022-08-14T19:14:56.786Z,14.90
2022-08-14T19:18:38.284Z,14.83
2022-08-14T19:25:06.196Z,18.13
2022-08-14T19:28:35.228Z,15.53
2022-08-14T19:31:55.079Z,17.60
2022-08-14T19:35:18.288Z,17.88
2022-08-14T19:41:51.858Z,18.90
2022-08-14T19:48:23.801Z,17.63
2022-08-14T19:51:49.736Z,17.85
2022-08-14T19:55:06.265Z,17.23
2022-08-14T19:58:30.058Z,18.73
2022-08-14T20:01:48.998Z,18.83
2022-08-14T20:05:12.470Z,18.98
2022-08-14T20:11:00.235Z,61.68
2022-08-14T20:12:02.585Z,25.83
2022-08-14T20:15:17.964Z,24.65
2022-08-14T20:18:48.826Z,23.18
2022-08-14T20:22:35.879Z,22.50
2022-08-14T20:25:25.993Z,20.63
2022-08-14T20:28:51.303Z,20.40
2022-08-14T20:32:00.973Z,20.35
2022-08-14T20:35:35.630Z,20.60
2022-08-14T20:42:15.476Z,19.98
2022-08-14T20:45:33.845Z,19.63
2022-08-14T20:49:04.283Z,19.83
2022-08-14T20:52:21.765Z,20.20
2022-08-14T20:59:00.521Z,19.78
2022-08-14T21:02:50.680Z,19.45
2022-08-14T21:05:57.330Z,21.25
2022-08-14T21:12:32.675Z,18.98
2022-08-14T21:15:56.633Z,18.50
2022-08-14T21:19:07.140Z,18.75
2022-08-14T21:28:56.165Z,17.35
2022-08-14T21:32:20.556Z,18.60
2022-08-14T21:35:31.675Z,18.15
2022-08-14T21:42:06.826Z,18.00
2022-08-14T21:45:24.948Z,17.73
2022-08-14T21:48:44.361Z,17.03
2022-08-14T21:56:59.489Z,18.43
2022-08-14T22:00:30.155Z,18.13
2022-08-14T22:03:45.125Z,18.25
2022-08-14T22:07:00.891Z,19.27
2022-08-14T22:10:23.029Z,17.95
2022-08-14T22:13:46.762Z,17.53
2022-08-14T22:17:00.694Z,18.18
2022-08-14T22:20:19.269Z,17.75
2022-08-14T22:26:52.237Z,16.68
2022-08-14T22:30:13.335Z,16.50
2022-08-14T22:33:33.035Z,17.48
2022-08-14T22:36:53.136Z,19.27
2022-08-14T22:40:59.759Z,19.83
2022-08-14T22:43:41.721Z,20.60
2022-08-14T22:46:58.712Z,20.98
2022-08-14T22:50:31.638Z,20.15
2022-08-14T22:53:36.707Z,16.23
2022-08-14T22:56:54.852Z,14.58
2022-08-14T23:00:16.360Z,14.25
2022-08-14T23:03:34.813Z,13.65
2022-08-14T23:07:01.995Z,14.28
2022-08-14T23:10:33.971Z,13.45
2022-08-14T23:13:31.174Z,13.95
2022-08-14T23:16:58.705Z,13.58
2022-08-14T23:20:20.105Z,14.93
2022-08-14T23:23:36.462Z,13.68
2022-08-14T23:26:55.664Z,14.35
2022-08-14T23:30:33.957Z,13.80
2022-08-14T23:33:35.966Z,14.35
2022-08-14T23:36:57.850Z,14.93
2022-08-14T23:40:26.640Z,15.33
2022-08-14T23:43:36.631Z,12.60
2022-08-14T23:46:57.053Z,13.50
2022-08-14T23:50:34.384Z,14.87
2022-08-14T23:53:47.643Z,12.33
2022-08-14T23:57:00.155Z,14.33
